METAR Data
IDs: Format: Raw Decoded Include TAF

Data at: 2059 UTC 19 May 2019

KSHL 192055Z AUTO 35015KT 6SM BR FEW012 BKN020 OVC025 08/08 A2983 RMK AO2
KSHL 192035Z AUTO 34013KT 10SM FEW012 BKN020 OVC026 08/08 A2983 RMK AO2
KSHL 192015Z AUTO 34014KT 9SM SCT015 OVC021 08/08 A2982 RMK AO2
KSHL 191955Z AUTO 34013KT 9SM FEW010 BKN015 OVC028 08/08 A2981 RMK AO2
KSHL 191935Z AUTO 34013KT 6SM BR FEW013 SCT020 BKN025 08/08 A2980 RMK AO2
KSHL 191915Z AUTO 34013KT 4SM BR SCT024 08/08 A2979 RMK AO2
KSHL 191855Z AUTO 33012KT 2SM BR FEW016 FEW025 08/08 A2979 RMK AO2
KSHL 191835Z AUTO 33011KT 3SM BR FEW014 SCT022 SCT027 08/08 A2978 RMK AO2
KSHL 191815Z AUTO 33010G15KT 5SM BR BKN019 BKN025 08/08 A2977 RMK AO2
KSHL 191755Z AUTO 34011KT 3SM BR OVC018 08/08 A2976 RMK AO2
KSHL 191735Z AUTO 35010G17KT 5SM BR OVC016 08/08 A2976 RMK AO2
KSHL 191715Z AUTO 35012KT 9SM OVC016 09/09 A2974 RMK AO2
KSHL 191655Z AUTO 35014KT 10SM OVC016 09/09 A2974 RMK AO2
KSHL 191635Z AUTO 35012KT 10SM OVC016 09/09 A2973 RMK AO2
KSHL 191615Z AUTO 35016KT 10SM OVC014 09/09 A2972 RMK AO2
KSHL 191555Z AUTO 35012G18KT 10SM OVC014 09/09 A2971 RMK AO2
KSHL 191535Z AUTO 36014G19KT 10SM OVC013 09/09 A2970 RMK AO2
KSHL 191515Z AUTO 35014KT 10SM BKN013 BKN019 OVC028 09/09 A2970 RMK AO2
KSHL 191455Z AUTO 35014KT 9SM SCT013 SCT017 SCT028 09/08 A2969 RMK AO2
KSHL 191435Z AUTO 34014KT 2 1/2SM BR FEW005 SCT017 08/08 A2970 RMK AO2
KSHL 191415Z AUTO 34012G17KT 3/4SM BR OVC005 08/08 A2970 RMK AO2
KSHL 191355Z AUTO 33013KT 3/4SM BR OVC004 08/08 A2970 RMK AO2 P0001
KSHL 191335Z AUTO 33011KT 1/2SM BR OVC004 08/08 A2969 RMK AO2
KSHL 191315Z AUTO 33012KT 3/4SM RA BKN005 OVC012 08/08 A2968 RMK AO2
KSHL 191255Z AUTO 34011KT 1/2SM RA BKN004 OVC009 08/08 A2967 RMK AO2
KSHL 191235Z AUTO 35010KT 3SM BR OVC007 08/08 A2966 RMK AO2
KSHL 191215Z AUTO 35010KT 9SM OVC008 08/08 A2965 RMK AO2
KSHL 191155Z AUTO 01010KT 3SM BR BKN005 OVC009 08/08 A2964 RMK AO2 P0001
KSHL 191135Z AUTO 01009KT 4SM BR BKN004 OVC007 08/08 A2963 RMK AO2
KSHL 191115Z AUTO 01010KT 2SM BR BKN004 OVC009 08/08 A2963 RMK AO2
KSHL 191055Z AUTO 01012KT 1 1/2SM -RA BKN004 OVC009 08/08 A2963 RMK AO2 P0001
KSHL 191035Z AUTO 01011KT 1 1/2SM -RA OVC004 08/08 A2963 RMK AO2
KSHL 191015Z AUTO 02011KT 1 1/4SM BR 08/08 A2962 RMK AO2
KSHL 190955Z AUTO 03011KT 2SM BR 08/08 A2962 RMK AO2 P0001
KSHL 190935Z AUTO 03011KT 2 1/2SM BR OVC005 08/08 A2961 RMK AO2
KSHL 190915Z AUTO 03013KT 3SM BR OVC004 08/08 A2960 RMK AO2
KSHL 190855Z AUTO 03013KT 3SM BR OVC003 08/08 A2960 RMK AO2 P0001
KSHL 190835Z AUTO 02013KT 1 3/4SM BR 09/09 A2960 RMK AO2
KSHL 190815Z AUTO 03014KT 2SM BR 09/09 A2960 RMK AO2
KSHL 190755Z AUTO 01011KT 3SM BR 09/09 A2960 RMK AO2
KSHL 190735Z AUTO 02010KT 4SM BR 10/10 A2961 RMK AO2
KSHL 190715Z AUTO 01011KT 5SM BR OVC004 10/10 A2960 RMK AO2
KSHL 190655Z AUTO 02009KT 5SM BR OVC005 10/10 A2960 RMK AO2
KSHL 190635Z AUTO 02008KT 6SM BR 10/10 A2959 RMK AO2
KSHL 190615Z AUTO 03006KT 6SM BR 10/10 A2960 RMK AO2
KSHL 190555Z AUTO 04008KT 6SM BR 10/10 A2960 RMK AO2
KSHL 190535Z AUTO 05006KT 6SM BR BKN006 OVC011 10/10 A2961 RMK AO2
KSHL 190515Z AUTO 06013KT 5SM BR 10/10 A2961 RMK AO2
KSHL 190455Z AUTO 06011KT 2 1/2SM BR BKN005 OVC011 10/10 A2963 RMK AO2 P0001
KSHL 190435Z AUTO 06011G17KT 1 3/4SM BR BKN007 OVC011 10/10 A2964 RMK AO2
KSHL 190415Z AUTO 05014G19KT 5SM BR 10/10 A2964 RMK AO2
KSHL 190355Z AUTO 05015KT 6SM BR 10/10 A2964 RMK AO2
KSHL 190335Z AUTO 05014G20KT 7SM OVC007 11/11 A2963 RMK AO2
KSHL 190315Z AUTO 05019KT 7SM 11/11 A2962 RMK AO2
KSHL 190255Z AUTO 04016KT 6SM BR OVC006 11/11 A2961 RMK AO2
KSHL 190235Z AUTO 04017KT 6SM BR 11/11 A2961 RMK AO2
KSHL 190215Z AUTO 04014KT 6SM BR SCT006 OVC012 12/12 A2962 RMK AO2
KSHL 190155Z AUTO 05015KT 8SM SCT006 OVC011 13/13 A2962 RMK AO2
KSHL 190135Z AUTO 02014KT 9SM OVC012 14/14 A2961 RMK AO2
KSHL 190115Z AUTO 33007KT 10SM OVC014 16/16 A2959 RMK AO2
KSHL 190055Z AUTO 32008KT 10SM OVC015 16/16 A2959 RMK AO2
KSHL 190035Z AUTO 32009KT 10SM OVC015 16/16 A2959 RMK AO2
KSHL 190015Z AUTO 31010KT 10SM OVC015 16/16 A2960 RMK AO2
KSHL 182355Z AUTO 30007KT 10SM OVC015 16/16 A2959 RMK AO2
KSHL 182335Z AUTO 28011KT 10SM OVC015 16/16 A2959 RMK AO2
KSHL 182315Z AUTO 27007KT 10SM OVC015 17/17 A2958 RMK AO2
KSHL 182255Z AUTO 26010KT 10SM OVC015 17/16 A2959 RMK AO2
KSHL 182235Z AUTO 24011KT 10SM OVC017 17/17 A2960 RMK AO2
KSHL 182215Z AUTO 23012KT 10SM OVC016 17/17 A2960 RMK AO2
KSHL 182155Z AUTO 24011KT 10SM OVC016 18/18 A2958 RMK AO2
KSHL 182135Z AUTO 26011KT 10SM OVC016 18/18 A2959 RMK AO2
KSHL 182115Z AUTO 24010KT 10SM OVC016 18/18 A2959 RMK AO2
KSHL 182055Z AUTO 23009KT 10SM BKN016 OVC028 18/18 A2960 RMK AO2
KSHL 182035Z AUTO 23009KT 10SM SCT015 OVC027 18/18 A2960 RMK AO2
KSHL 182015Z AUTO 24012KT 10SM BKN015 OVC027 18/18 A2958 RMK AO2
KSHL 181955Z AUTO 24011KT 10SM OVC016 18/18 A2958 RMK AO2
KSHL 181935Z AUTO 24011KT 10SM BKN015 BKN020 OVC027 19/18 A2958 RMK AO2
KSHL 181915Z AUTO 23011G16KT 10SM SCT014 OVC027 19/19 A2956 RMK AO2
KSHL 181855Z AUTO 24013KT 10SM FEW015 OVC026 19/19 A2956 RMK AO2
KSHL 181835Z AUTO 24014G19KT 10SM FEW017 BKN023 20/20 A2954 RMK AO2
KSHL 181815Z AUTO 25016KT 10SM BKN017 OVC024 19/19 A2954 RMK AO2
KSHL 181755Z AUTO 24016G22KT 10SM SCT017 BKN024 OVC036 20/20 A2954 RMK AO2
KSHL 181735Z AUTO 23018G24KT 10SM FEW021 SCT025 BKN035 22/21 A2954 RMK AO2
KSHL 181715Z AUTO 20018G27KT 10SM FEW022 BKN033 BKN041 22/20 A2954 RMK AO2
KSHL 181655Z AUTO 20016G22KT 10SM BKN032 BKN040 22/19 A2954 RMK AO2
KSHL 181635Z AUTO 19016KT 10SM SCT032 23/20 A2952 RMK AO2
KSHL 181615Z AUTO 19016KT 10SM CLR 22/19 A2951 RMK AO2
KSHL 181555Z AUTO 21016G21KT 10SM CLR 22/18 A2952 RMK AO2
KSHL 181535Z AUTO 18010KT 170V230 10SM CLR 22/20 A2951 RMK AO2
KSHL 181515Z AUTO 16010KT 9SM CLR 21/21 A2952 RMK AO2
KSHL 181455Z AUTO 13010KT 9SM CLR 20/20 A2953 RMK AO2
KSHL 181435Z AUTO 14011KT 6SM BR CLR 18/18 A2952 RMK AO2
KSHL 181415Z AUTO 12010KT 4SM BR CLR 17/17 A2950 RMK AO2
KSHL 181355Z AUTO 12011KT 4SM BR CLR 17/17 A2950 RMK AO2
KSHL 181335Z AUTO 12012KT 4SM BR CLR 17/17 A2951 RMK AO2
KSHL 181315Z AUTO 12012KT 4SM BR CLR 16/16 A2952 RMK AO2
KSHL 181255Z AUTO 11012KT 3SM BR CLR 16/16 A2951 RMK AO2
KSHL 181235Z AUTO 12011KT 3SM BR CLR 16/16 A2951 RMK AO2
KSHL 181215Z AUTO 10008G13KT 4SM BR CLR 16/16 A2949 RMK AO2
KSHL 181155Z AUTO 10014G19KT 3SM BR CLR 16/15 A2949 RMK AO2
KSHL 181135Z AUTO 11014G20KT 4SM BR CLR 16/15 A2950 RMK AO2
KSHL 181115Z AUTO 12017G22KT 4SM BR FEW065 BKN080 BKN110 16/15 A2951 RMK AO2
KSHL 181055Z AUTO 11013G19KT 6SM BR 16/16 A2950 RMK AO2
KSHL 181035Z AUTO 11010G27KT 10SM 17/17 A2949 RMK AO2
KSHL 181015Z AUTO 10013KT 8SM 16/16 A2952 RMK AO2
KSHL 180955Z AUTO 12013KT 8SM 16/16 A2955 RMK AO2
KSHL 180935Z AUTO 10009KT 6SM BR FEW004 SCT041 BKN055 16/15 A2954 RMK AO2
KSHL 180915Z AUTO 11011KT 7SM 15/15 A2954 RMK AO2